createdAt,value
2023-02-12T00:00:24.162Z,7.32
2023-02-12T00:02:57.522Z,6.90
2023-02-12T00:05:28.524Z,7.32
2023-02-12T00:07:59.209Z,7.57
2023-02-12T00:10:30.069Z,8.52
2023-02-12T00:13:00.884Z,8.35
2023-02-12T00:15:31.671Z,7.97
2023-02-12T00:18:05.084Z,7.53
2023-02-12T00:20:35.854Z,8.10
2023-02-12T00:23:06.956Z,7.38
2023-02-12T00:25:37.819Z,7.78
2023-02-12T00:28:08.705Z,7.28
2023-02-12T00:30:39.881Z,7.60
2023-02-12T00:33:13.353Z,7.85
2023-02-12T00:35:44.133Z,7.22
2023-02-12T00:38:14.858Z,8.43
2023-02-12T00:40:45.685Z,7.90
2023-02-12T00:43:16.564Z,8.25
2023-02-12T00:45:48.345Z,7.65
2023-02-12T00:48:21.877Z,7.57
2023-02-12T00:50:53.935Z,7.80
2023-02-12T00:53:25.027Z,7.90
2023-02-12T00:55:56.285Z,8.75
2023-02-12T00:58:27.302Z,8.23
2023-02-12T01:00:58.363Z,9.05
2023-02-12T01:03:31.906Z,8.40
2023-02-12T01:06:03.527Z,9.13
2023-02-12T01:08:34.437Z,9.43
2023-02-12T01:11:06.847Z,9.48
2023-02-12T01:13:38.666Z,9.15
2023-02-12T01:16:13.453Z,9.40
2023-02-12T01:18:47.354Z,9.52
2023-02-12T01:21:19.759Z,9.85
2023-02-12T01:23:51.986Z,10.10
2023-02-12T01:26:24.637Z,10.68
2023-02-12T01:28:57.142Z,10.70
2023-02-12T01:31:31.060Z,10.38
2023-02-12T01:34:04.939Z,10.50
2023-02-12T01:36:37.813Z,10.75
2023-02-12T01:39:09.875Z,11.23
2023-02-12T01:41:46.100Z,11.63
2023-02-12T01:44:21.379Z,12.07
2023-02-12T01:47:02.706Z,11.30
2023-02-12T01:49:40.107Z,12.05
2023-02-12T01:52:16.220Z,12.82
2023-02-12T01:54:47.282Z,12.83
2023-02-12T01:57:19.789Z,12.85
2023-02-12T01:59:54.977Z,14.02
2023-02-12T02:02:25.972Z,13.38
2023-02-12T02:05:03.470Z,13.00
2023-02-12T02:07:35.439Z,13.82
2023-02-12T02:10:09.432Z,14.13
2023-02-12T02:12:53.926Z,14.85
2023-02-12T02:15:24.918Z,14.95
2023-02-12T02:18:00.385Z,15.60
2023-02-12T02:21:02.405Z,15.85
2023-02-12T02:23:58.518Z,16.17
2023-02-12T02:26:50.236Z,15.40
2023-02-12T02:29:38.008Z,15.52
2023-02-12T02:32:16.909Z,16.48
2023-02-12T02:34:55.543Z,15.75
2023-02-12T02:37:34.712Z,16.92
2023-02-12T02:40:12.659Z,16.25
2023-02-12T02:42:50.738Z,16.60
2023-02-12T02:45:28.141Z,17.50
2023-02-12T02:48:06.621Z,16.63
2023-02-12T02:50:41.574Z,17.58
2023-02-12T02:53:16.473Z,17.00
2023-02-12T02:55:52.809Z,17.17
2023-02-12T02:58:28.977Z,17.83
2023-02-12T03:01:05.809Z,17.17
2023-02-12T03:03:45.684Z,17.58
2023-02-12T03:06:22.768Z,18.08
2023-02-12T03:08:56.994Z,18.42
2023-02-12T03:11:31.754Z,19.15
2023-02-12T03:14:08.887Z,18.48
2023-02-12T03:16:44.805Z,17.95
2023-02-12T03:19:21.721Z,18.63
2023-02-12T03:24:30.362Z,18.20
2023-02-12T03:27:06.201Z,18.77
2023-02-12T03:29:37.185Z,18.85
2023-02-12T03:32:21.035Z,19.13
2023-02-12T03:34:58.226Z,19.15
2023-02-12T03:37:34.022Z,19.05
2023-02-12T03:40:14.421Z,19.88
2023-02-12T03:42:51.991Z,18.83
2023-02-12T03:45:30.607Z,21.15
2023-02-12T03:48:11.601Z,20.65
2023-02-12T03:50:55.322Z,20.80
2023-02-12T03:53:26.422Z,19.88
2023-02-12T03:56:04.306Z,20.60
2023-02-12T03:58:38.631Z,20.17
2023-02-12T04:01:10.235Z,20.23
2023-02-12T04:03:41.831Z,21.00
2023-02-12T04:06:27.005Z,19.80
2023-02-12T04:09:00.934Z,19.55
2023-02-12T04:11:37.085Z,19.52
2023-02-12T04:14:25.822Z,20.48
2023-02-12T04:17:05.385Z,20.13
2023-02-12T04:19:46.941Z,20.15
2023-02-12T04:22:33.181Z,19.33
2023-02-12T04:25:18.981Z,19.95
2023-02-12T04:27:55.628Z,19.58
2023-02-12T04:30:31.864Z,19.77
2023-02-12T04:33:06.621Z,20.00
2023-02-12T04:35:43.585Z,18.88
2023-02-12T04:38:21.978Z,18.92
2023-02-12T04:40:53.584Z,20.45
2023-02-12T04:43:33.617Z,18.95
2023-02-12T04:46:06.258Z,19.40
2023-02-12T04:48:37.435Z,18.63
2023-02-12T04:51:08.633Z,19.25
2023-02-12T04:53:42.073Z,18.77
2023-02-12T04:56:16.091Z,18.35
2023-02-12T04:58:47.154Z,18.38
2023-02-12T05:01:18.142Z,17.70
2023-02-12T05:03:49.010Z,18.67
2023-02-12T05:06:19.836Z,17.50
2023-02-12T05:08:55.496Z,18.15
2023-02-12T05:11:26.589Z,17.05
2023-02-12T05:13:57.771Z,17.85
2023-02-12T05:16:29.085Z,18.52
2023-02-12T05:19:02.839Z,17.67
2023-02-12T05:21:33.698Z,16.52
2023-02-12T05:24:08.501Z,16.65
2023-02-12T05:26:39.629Z,18.10
2023-02-12T05:29:10.491Z,17.85
2023-02-12T05:31:41.665Z,16.73
2023-02-12T05:34:14.295Z,18.35
2023-02-12T05:36:45.174Z,17.67
2023-02-12T05:39:18.545Z,17.60
2023-02-12T05:41:49.262Z,17.25
2023-02-12T05:44:20.070Z,16.83
2023-02-12T05:46:50.959Z,16.55
2023-02-12T05:49:21.932Z,17.60
2023-02-12T05:51:52.966Z,17.48
2023-02-12T05:54:26.554Z,18.38
2023-02-12T05:56:57.365Z,16.98
2023-02-12T05:59:28.277Z,16.55
2023-02-12T06:01:59.262Z,16.60
2023-02-12T06:04:32.249Z,16.48
2023-02-12T06:07:04.109Z,17.33
2023-02-12T06:09:38.090Z,17.05
2023-02-12T06:12:09.178Z,16.75
2023-02-12T06:14:39.982Z,15.45
2023-02-12T06:17:10.918Z,15.85
2023-02-12T06:19:41.725Z,15.90
2023-02-12T06:22:12.628Z,16.70
2023-02-12T06:24:46.003Z,15.90
2023-02-12T06:27:16.771Z,15.38
2023-02-12T06:29:47.720Z,14.77
2023-02-12T06:32:18.614Z,14.35
2023-02-12T06:34:49.424Z,14.27
2023-02-12T06:37:20.259Z,14.88
2023-02-12T06:39:53.775Z,14.73
2023-02-12T06:42:24.610Z,14.15
2023-02-12T06:44:55.460Z,14.57
2023-02-12T06:47:26.210Z,13.80
2023-02-12T06:49:57.013Z,14.65
2023-02-12T06:52:27.954Z,14.45
2023-02-12T06:55:01.406Z,14.60
2023-02-12T06:57:33.103Z,18.13
2023-02-12T07:00:03.903Z,14.38
2023-02-12T07:02:36.277Z,13.77
2023-02-12T07:05:09.383Z,13.75
2023-02-12T07:07:40.387Z,13.55
2023-02-12T07:10:14.512Z,12.52
2023-02-12T07:12:45.315Z,14.00
2023-02-12T07:15:16.211Z,13.43
2023-02-12T07:17:47.010Z,13.20
2023-02-12T07:20:18.132Z,11.60
2023-02-12T07:22:48.838Z,11.70
2023-02-12T07:25:22.311Z,14.10
2023-02-12T07:27:53.148Z,13.13
2023-02-12T07:30:24.090Z,12.65
2023-02-12T07:32:54.925Z,12.55
2023-02-12T07:35:25.751Z,13.05
2023-02-12T07:37:56.683Z,12.82
2023-02-12T07:40:30.210Z,13.68
2023-02-12T07:43:00.958Z,12.77
2023-02-12T07:45:31.774Z,14.38
2023-02-12T07:48:02.599Z,18.17
2023-02-12T07:50:33.374Z,14.48
2023-02-12T07:53:04.311Z,13.57
2023-02-12T07:55:37.739Z,12.77
2023-02-12T07:58:08.481Z,13.43
2023-02-12T08:00:39.267Z,12.70
2023-02-12T08:03:10.069Z,12.30
2023-02-12T08:05:40.924Z,11.57
2023-02-12T08:08:11.690Z,11.85
2023-02-12T08:10:45.052Z,11.40
2023-02-12T08:13:15.887Z,11.02
2023-02-12T08:15:47.031Z,10.82
2023-02-12T08:18:17.915Z,11.57
2023-02-12T08:20:48.706Z,11.57
2023-02-12T08:23:19.518Z,10.85
2023-02-12T08:25:52.840Z,11.02
2023-02-12T08:28:23.848Z,10.90
2023-02-12T08:30:54.668Z,11.63
2023-02-12T08:33:25.861Z,11.38
2023-02-12T08:36:08.615Z,12.57
2023-02-12T08:38:40.302Z,11.63
2023-02-12T08:41:16.001Z,11.48
2023-02-12T08:43:47.808Z,11.85
2023-02-12T08:46:20.208Z,11.70
2023-02-12T08:48:52.563Z,13.10
2023-02-12T08:51:24.933Z,13.88
2023-02-12T08:53:57.901Z,12.43
2023-02-12T08:56:33.018Z,12.60
2023-02-12T08:59:05.631Z,12.25
2023-02-12T09:01:38.741Z,12.50
2023-02-12T09:04:10.040Z,15.07
2023-02-12T09:06:40.975Z,13.43
2023-02-12T09:09:11.824Z,12.95
2023-02-12T09:11:45.862Z,12.70
2023-02-12T09:14:19.185Z,12.30
2023-02-12T09:16:50.075Z,12.75
2023-02-12T09:19:21.908Z,13.65
2023-02-12T09:21:56.622Z,13.45
2023-02-12T09:24:28.368Z,13.48
2023-02-12T09:27:04.615Z,11.77
2023-02-12T09:29:35.466Z,13.38
2023-02-12T09:32:07.009Z,12.95
2023-02-12T09:34:38.670Z,13.18
2023-02-12T09:37:09.437Z,13.57
2023-02-12T09:39:40.962Z,12.50
2023-02-12T09:42:37.531Z,13.40
2023-02-12T09:45:19.586Z,15.15
2023-02-12T09:47:59.648Z,13.80
2023-02-12T09:50:40.901Z,13.25
2023-02-12T09:53:17.790Z,13.13
2023-02-12T09:58:27.834Z,13.82
2023-02-12T10:00:58.701Z,14.25
2023-02-12T10:03:32.641Z,15.80
2023-02-12T10:06:07.371Z,13.85
2023-02-12T10:09:04.319Z,13.98
2023-02-12T10:11:52.152Z,14.90
2023-02-12T10:14:42.151Z,14.43
2023-02-12T10:17:22.638Z,10.02
2023-02-12T10:20:10.244Z,13.82
2023-02-12T10:22:56.795Z,12.80
2023-02-12T10:25:33.220Z,13.73
2023-02-12T10:28:11.848Z,13.80
2023-02-12T10:30:51.579Z,11.88
2023-02-12T10:33:31.347Z,11.75
2023-02-12T10:36:08.089Z,12.85
2023-02-12T10:38:46.396Z,14.77
2023-02-12T10:41:19.892Z,12.23
2023-02-12T10:43:50.744Z,12.27
2023-02-12T10:46:24.273Z,12.07
2023-02-12T10:48:59.071Z,13.75
2023-02-12T10:51:44.600Z,13.00
2023-02-12T10:54:37.209Z,13.35
2023-02-12T10:57:23.975Z,11.65
2023-02-12T10:59:57.480Z,15.45
2023-02-12T11:02:33.713Z,13.07
2023-02-12T11:05:26.134Z,13.60
2023-02-12T11:07:57.731Z,13.25
2023-02-12T11:10:32.291Z,13.63
2023-02-12T11:13:04.463Z,13.02
2023-02-12T11:15:40.768Z,22.27
2023-02-12T11:18:26.421Z,20.17
2023-02-12T11:21:00.284Z,18.83
2023-02-12T11:23:33.191Z,13.63
2023-02-12T11:26:07.758Z,16.20
2023-02-12T11:28:39.855Z,19.55
2023-02-12T11:31:25.234Z,13.65
2023-02-12T11:34:19.963Z,16.08
2023-02-12T11:36:53.569Z,22.58
2023-02-12T11:39:27.067Z,15.07
2023-02-12T11:42:00.018Z,15.82
2023-02-12T11:44:35.494Z,13.95
2023-02-12T11:47:10.757Z,12.85
2023-02-12T11:49:51.668Z,12.75
2023-02-12T11:52:26.229Z,13.77
2023-02-12T11:55:00.174Z,12.52
2023-02-12T11:57:42.673Z,12.40
2023-02-12T12:00:20.156Z,13.27
2023-02-12T12:03:04.743Z,12.32
2023-02-12T12:05:41.813Z,13.48
2023-02-12T12:08:22.752Z,13.05
2023-02-12T12:10:59.869Z,12.07
2023-02-12T12:13:36.870Z,13.10
2023-02-12T12:16:25.927Z,12.85
2023-02-12T12:19:15.012Z,13.30
2023-02-12T12:21:55.520Z,12.63
2023-02-12T12:24:32.171Z,14.65
2023-02-12T12:27:14.619Z,13.32
2023-02-12T12:29:55.089Z,13.48
2023-02-12T12:32:29.674Z,12.95
2023-02-12T12:35:00.607Z,12.27
2023-02-12T12:37:41.298Z,13.18
2023-02-12T12:40:29.131Z,13.75
2023-02-12T12:43:07.472Z,13.25
2023-02-12T12:46:16.799Z,11.55
2023-02-12T12:49:17.028Z,11.23
2023-02-12T12:52:11.719Z,13.90
2023-02-12T12:55:08.259Z,11.07
2023-02-12T12:57:49.221Z,10.63
2023-02-12T13:00:31.917Z,12.00
2023-02-12T13:03:30.459Z,10.90
2023-02-12T13:06:32.487Z,10.25
2023-02-12T13:09:26.068Z,11.05
2023-02-12T13:12:18.981Z,11.98
2023-02-12T13:14:55.670Z,11.60
2023-02-12T13:17:34.442Z,9.68
2023-02-12T13:20:13.290Z,21.58
2023-02-12T13:22:53.681Z,19.10
2023-02-12T13:25:31.949Z,11.23
2023-02-12T13:28:08.340Z,14.45
2023-02-12T13:30:45.326Z,9.85
2023-02-12T13:35:51.700Z,9.73
2023-02-12T13:38:27.778Z,9.30
2023-02-12T13:41:02.884Z,13.03
2023-02-12T13:43:48.898Z,8.93
2023-02-12T13:46:28.144Z,10.70
2023-02-12T13:49:05.462Z,9.60
2023-02-12T13:51:45.836Z,9.05
2023-02-12T13:54:36.530Z,9.65
2023-02-12T13:57:12.681Z,8.88
2023-02-12T13:59:49.279Z,7.85
2023-02-12T14:02:52.852Z,9.25
2023-02-12T14:05:33.111Z,9.07
2023-02-12T14:08:08.204Z,7.50
2023-02-12T14:10:41.906Z,13.20
2023-02-12T14:13:23.615Z,15.80
2023-02-12T14:15:59.554Z,9.75
2023-02-12T14:18:35.116Z,8.88
2023-02-12T14:21:46.795Z,7.82
2023-02-12T14:24:47.321Z,7.53
2023-02-12T14:27:38.286Z,7.50
2023-02-12T14:30:32.625Z,6.80
2023-02-12T14:33:20.404Z,8.38
2023-02-12T14:35:52.941Z,7.53
2023-02-12T14:39:03.256Z,7.32
2023-02-12T14:41:38.087Z,8.68
2023-02-12T14:44:44.718Z,7.45
2023-02-12T14:47:40.479Z,7.93
2023-02-12T14:50:20.048Z,7.90
2023-02-12T14:52:56.475Z,7.82
2023-02-12T14:55:31.252Z,8.40
2023-02-12T14:58:05.233Z,18.95
2023-02-12T15:00:40.926Z,19.35
2023-02-12T15:03:22.638Z,22.98
2023-02-12T15:06:04.398Z,16.88
2023-02-12T15:08:39.936Z,13.35
2023-02-12T15:11:23.174Z,11.73
2023-02-12T15:13:58.655Z,7.32
2023-02-12T15:16:48.070Z,8.30
2023-02-12T15:19:30.744Z,9.48
2023-02-12T15:22:04.326Z,6.57
2023-02-12T15:24:35.174Z,7.35
2023-02-12T15:27:08.233Z,6.45
2023-02-12T15:29:46.157Z,5.88
2023-02-12T15:32:22.870Z,5.63
2023-02-12T15:34:55.474Z,6.93
2023-02-12T15:37:31.617Z,7.68
2023-02-12T15:40:07.294Z,8.48
2023-02-12T15:42:42.943Z,5.53
2023-02-12T15:45:26.274Z,6.30
2023-02-12T15:48:15.761Z,5.55
2023-02-12T15:50:54.619Z,5.70
2023-02-12T15:53:31.207Z,6.00
2023-02-12T15:56:03.763Z,6.15
2023-02-12T15:58:41.000Z,5.80
2023-02-12T16:01:18.204Z,6.93
2023-02-12T16:03:54.435Z,5.80
2023-02-12T16:06:26.771Z,5.47
2023-02-12T16:09:05.015Z,6.03
2023-02-12T16:11:36.792Z,5.45
2023-02-12T16:14:11.750Z,5.60
2023-02-12T16:16:48.998Z,5.95
2023-02-12T16:19:25.629Z,6.55
2023-02-12T16:22:03.711Z,5.65
2023-02-12T16:24:40.491Z,5.15
2023-02-12T16:27:23.128Z,5.10
2023-02-12T16:29:57.113Z,5.93
2023-02-12T16:32:34.240Z,6.70
2023-02-12T16:35:08.359Z,6.18
2023-02-12T16:37:51.698Z,6.35
2023-02-12T16:40:37.842Z,7.15
2023-02-12T16:43:27.405Z,6.68
2023-02-12T16:46:16.826Z,6.82
2023-02-12T16:48:51.978Z,6.55
2023-02-12T16:51:28.603Z,7.05
2023-02-12T16:54:00.829Z,7.18
2023-02-12T16:56:38.830Z,7.28
2023-02-12T16:59:12.751Z,6.95
2023-02-12T17:01:44.007Z,7.93
2023-02-12T17:04:19.267Z,9.30
2023-02-12T17:06:50.069Z,9.85
2023-02-12T17:09:21.326Z,9.85
2023-02-12T17:11:54.713Z,9.85
2023-02-12T17:14:25.506Z,10.05
2023-02-12T17:16:56.306Z,11.32
2023-02-12T17:19:27.164Z,13.98
2023-02-12T17:21:58.031Z,11.68
2023-02-12T17:24:31.418Z,19.73
2023-02-12T17:27:08.107Z,15.05
2023-02-12T17:29:38.831Z,21.40
2023-02-12T17:32:09.668Z,20.70
2023-02-12T17:34:48.421Z,46.63
2023-02-12T17:37:22.510Z,29.95
2023-02-12T17:39:53.470Z,18.65
2023-02-12T17:42:26.806Z,16.35
2023-02-12T17:44:58.034Z,13.60
2023-02-12T17:47:30.051Z,13.52
2023-02-12T17:50:02.724Z,14.23
2023-02-12T17:52:33.654Z,15.80
2023-02-12T17:55:05.175Z,15.68
2023-02-12T17:57:39.552Z,15.00
2023-02-12T18:00:13.541Z,15.50
2023-02-12T18:02:44.441Z,16.70
2023-02-12T18:05:15.479Z,18.00
2023-02-12T18:07:46.358Z,17.23
2023-02-12T18:10:17.585Z,16.67
2023-02-12T18:12:51.116Z,16.15
2023-02-12T18:15:22.286Z,15.77
2023-02-12T18:17:53.055Z,15.25
2023-02-12T18:20:24.101Z,15.98
2023-02-12T18:22:54.922Z,17.50
2023-02-12T18:25:26.136Z,21.10
2023-02-12T18:28:01.576Z,22.10
2023-02-12T18:30:32.461Z,22.10
2023-02-12T18:33:03.311Z,21.42
2023-02-12T18:35:34.190Z,22.35
2023-02-12T18:38:04.937Z,21.13
2023-02-12T18:40:35.700Z,20.33
2023-02-12T18:43:09.107Z,19.95
2023-02-12T18:45:42.616Z,21.55
2023-02-12T18:48:13.378Z,20.83
2023-02-12T18:50:44.377Z,19.95
2023-02-12T18:53:15.373Z,19.75
2023-02-12T18:55:46.756Z,19.45
2023-02-12T18:58:20.359Z,17.95
2023-02-12T19:00:51.620Z,18.77
2023-02-12T19:03:22.669Z,20.73
2023-02-12T19:05:53.549Z,31.27
2023-02-12T19:08:24.316Z,22.55
2023-02-12T19:10:55.544Z,22.80
2023-02-12T19:13:29.249Z,19.75
2023-02-12T19:16:00.395Z,21.35
2023-02-12T19:18:31.182Z,20.50
2023-02-12T19:21:01.984Z,20.45
2023-02-12T19:23:32.898Z,23.38
2023-02-12T19:26:06.495Z,23.85
2023-02-12T19:28:41.211Z,22.75
2023-02-12T19:31:16.517Z,22.05
2023-02-12T19:33:48.345Z,23.73
2023-02-12T19:36:20.985Z,23.02
2023-02-12T19:38:52.183Z,24.60
2023-02-12T19:41:25.271Z,25.25
2023-02-12T19:44:01.163Z,25.05
2023-02-12T19:46:33.905Z,25.23
2023-02-12T19:49:06.009Z,24.58
2023-02-12T19:51:39.702Z,23.52
2023-02-12T19:54:10.952Z,22.15
2023-02-12T19:56:42.190Z,22.88
2023-02-12T19:59:17.487Z,24.88
2023-02-12T20:01:49.289Z,23.90
2023-02-12T20:04:23.135Z,24.75
2023-02-12T20:06:54.021Z,26.70
2023-02-12T20:09:26.076Z,27.00
2023-02-12T20:11:57.858Z,26.50
2023-02-12T20:14:31.856Z,30.05
2023-02-12T20:17:02.933Z,31.50
2023-02-12T20:19:35.250Z,33.00
2023-02-12T20:22:06.417Z,30.13
2023-02-12T20:24:38.034Z,29.48
2023-02-12T20:27:08.842Z,23.65
2023-02-12T20:29:42.283Z,21.65
2023-02-12T20:32:13.980Z,20.50
2023-02-12T20:34:50.882Z,17.90
2023-02-12T20:37:22.301Z,15.65
2023-02-12T20:39:53.215Z,15.75
2023-02-12T20:42:24.307Z,15.05
2023-02-12T20:44:58.302Z,16.42
2023-02-12T20:47:31.791Z,15.35
2023-02-12T20:50:03.526Z,15.73
2023-02-12T20:52:35.340Z,16.60
2023-02-12T20:55:07.117Z,17.85
2023-02-12T20:57:38.007Z,16.23
2023-02-12T21:00:12.690Z,18.30
2023-02-12T21:02:44.052Z,18.23
2023-02-12T21:05:15.719Z,15.02
2023-02-12T21:07:49.947Z,13.77
2023-02-12T21:10:24.101Z,14.25
2023-02-12T21:12:54.986Z,15.55
2023-02-12T21:15:29.296Z,13.13
2023-02-12T21:18:00.595Z,13.60
2023-02-12T21:20:33.250Z,14.15
2023-02-12T21:23:05.648Z,13.93
2023-02-12T21:25:39.350Z,13.07
2023-02-12T21:28:11.251Z,14.82
2023-02-12T21:30:47.059Z,14.00
2023-02-12T21:33:19.157Z,13.35
2023-02-12T21:35:51.142Z,12.90
2023-02-12T21:38:23.092Z,14.68
2023-02-12T21:40:56.935Z,13.50
2023-02-12T21:43:27.756Z,14.07
2023-02-12T21:46:01.219Z,14.00
2023-02-12T21:48:32.227Z,16.85
2023-02-12T21:51:05.319Z,15.63
2023-02-12T21:53:36.346Z,16.15
2023-02-12T21:56:07.945Z,15.18
2023-02-12T21:58:38.764Z,15.85
2023-02-12T22:01:15.058Z,14.90
2023-02-12T22:03:47.013Z,14.30
2023-02-12T22:06:20.273Z,15.73
2023-02-12T22:08:51.373Z,15.98
2023-02-12T22:11:23.589Z,16.77
2023-02-12T22:13:54.826Z,15.27
2023-02-12T22:16:30.239Z,15.38
2023-02-12T22:19:03.030Z,15.93
2023-02-12T22:21:35.522Z,16.13
2023-02-12T22:24:07.862Z,15.90
2023-02-12T22:26:38.999Z,15.43
2023-02-12T22:29:11.777Z,15.57
2023-02-12T22:31:47.170Z,16.45
2023-02-12T22:34:21.576Z,15.68
2023-02-12T22:36:52.388Z,14.85
2023-02-12T22:39:23.310Z,13.98
2023-02-12T22:41:54.062Z,13.90
2023-02-12T22:44:25.139Z,16.45
2023-02-12T22:46:58.466Z,17.55
2023-02-12T22:49:29.329Z,15.25
2023-02-12T22:52:00.271Z,13.45
2023-02-12T22:54:31.173Z,14.18
2023-02-12T22:57:02.007Z,15.38
2023-02-12T22:59:32.813Z,13.38
2023-02-12T23:02:06.250Z,16.90
2023-02-12T23:04:37.013Z,13.15
2023-02-12T23:07:07.939Z,13.70
2023-02-12T23:09:38.872Z,11.48
2023-02-12T23:12:11.179Z,12.02
2023-02-12T23:14:41.965Z,11.07
2023-02-12T23:17:15.400Z,11.50
2023-02-12T23:19:46.206Z,11.82
2023-02-12T23:22:16.957Z,10.00
2023-02-12T23:24:47.761Z,11.20
2023-02-12T23:27:18.806Z,11.93
2023-02-12T23:29:49.526Z,12.80
2023-02-12T23:32:22.922Z,12.15
2023-02-12T23:34:53.673Z,12.10
2023-02-12T23:37:24.571Z,11.50
2023-02-12T23:39:55.266Z,12.15
2023-02-12T23:42:25.981Z,12.48
2023-02-12T23:44:57.634Z,12.70
2023-02-12T23:47:31.263Z,12.75
2023-02-12T23:50:02.014Z,12.57
2023-02-12T23:52:32.902Z,12.45
2023-02-12T23:55:03.715Z,13.57
2023-02-12T23:57:34.528Z,12.48
